createdAt,value
2023-04-02T00:01:07.565Z,94188.72
2023-04-02T00:04:11.586Z,94163.53
2023-04-02T00:06:45.231Z,94142.19
2023-04-02T00:09:37.825Z,94123.47
2023-04-02T00:12:20.863Z,94040.25
2023-04-02T00:14:53.970Z,94050.88
2023-04-02T00:17:25.054Z,94069.25
2023-04-02T00:20:07.542Z,94055.88
2023-04-02T00:22:36.483Z,93948.66
2023-04-02T00:25:13.804Z,94042.31
2023-04-02T00:27:42.368Z,93932.53
2023-04-02T00:30:14.784Z,93892.91
2023-04-02T00:32:44.225Z,93956.69
2023-04-02T00:35:19.737Z,93960.56
2023-04-02T00:37:47.941Z,93936.84
2023-04-02T00:40:24.747Z,93846.13
2023-04-02T00:42:55.154Z,93882.84
2023-04-02T00:45:28.952Z,93963.09
2023-04-02T00:47:58.836Z,93919.53
2023-04-02T00:50:34.255Z,93927.91
2023-04-02T00:53:13.909Z,93784.41
2023-04-02T00:55:43.225Z,93906.75
2023-04-02T00:58:20.474Z,93893.06
2023-04-02T01:00:52.881Z,93779.03
2023-04-02T01:03:35.125Z,93797.69
2023-04-02T01:06:11.170Z,93839.22
2023-04-02T01:09:00.569Z,93850.34
2023-04-02T01:11:56.632Z,93748.28
2023-04-02T01:14:45.240Z,93727.19
2023-04-02T01:17:35.234Z,93735.91
2023-04-02T01:20:40.445Z,93815.97
2023-04-02T01:23:15.091Z,93725.06
2023-04-02T01:25:49.199Z,93700.13
2023-04-02T01:28:21.585Z,93757.19
2023-04-02T01:30:57.382Z,93751.56
2023-04-02T01:33:31.542Z,93715.84
2023-04-02T01:36:07.308Z,93701.50
2023-04-02T01:38:41.490Z,93709.09
2023-04-02T01:41:15.075Z,93712.41
2023-04-02T01:43:49.057Z,93759.28
2023-04-02T01:46:29.591Z,93733.53
2023-04-02T01:48:58.970Z,93724.34
2023-04-02T01:51:30.482Z,93725.03
2023-04-02T01:54:06.282Z,93733.75
2023-04-02T01:56:36.370Z,93732.00
2023-04-02T01:59:07.008Z,93800.53
2023-04-02T02:01:41.500Z,93822.44
2023-04-02T02:04:13.057Z,93787.66
2023-04-02T02:06:41.554Z,93744.88
2023-04-02T02:09:18.937Z,93809.22
2023-04-02T02:11:49.271Z,93793.59
2023-04-02T02:14:20.900Z,93773.03
2023-04-02T02:16:56.712Z,93759.97
2023-04-02T02:19:30.147Z,93765.53
2023-04-02T02:22:04.906Z,93711.03
2023-04-02T02:24:36.014Z,93669.38
2023-04-02T02:27:35.595Z,93758.13
2023-04-02T02:30:07.587Z,93739.31
2023-04-02T02:32:40.332Z,93538.38
2023-04-02T02:35:19.348Z,93724.78
2023-04-02T02:37:52.060Z,93712.22
2023-04-02T02:40:25.460Z,93695.44
2023-04-02T02:42:58.800Z,93698.19
2023-04-02T02:45:29.848Z,93705.78
2023-04-02T02:48:00.468Z,93711.41
2023-04-02T02:50:33.147Z,93693.56
2023-04-02T02:53:05.404Z,93693.84
2023-04-02T02:55:36.971Z,93677.91
2023-04-02T02:58:09.674Z,93663.09
2023-04-02T03:00:39.234Z,93646.53
2023-04-02T03:03:11.721Z,93643.13
2023-04-02T03:05:42.171Z,93640.56
2023-04-02T03:08:18.107Z,93625.59
2023-04-02T03:10:53.056Z,93607.22
2023-04-02T03:13:24.581Z,93584.50
2023-04-02T03:16:01.490Z,93578.09
2023-04-02T03:18:36.424Z,93563.13
2023-04-02T03:21:12.891Z,93541.06
2023-04-02T03:23:44.927Z,93548.00
2023-04-02T03:26:19.213Z,93524.50
2023-04-02T03:28:53.465Z,93518.09
2023-04-02T03:31:27.493Z,93504.56
2023-04-02T03:33:59.947Z,93494.56
2023-04-02T03:36:34.209Z,93493.16
2023-04-02T03:39:10.999Z,93496.19
2023-04-02T03:41:45.349Z,93495.56
2023-04-02T03:44:23.709Z,93494.75
2023-04-02T03:46:57.732Z,93506.34
2023-04-02T03:49:32.464Z,93521.47
2023-04-02T03:52:05.900Z,93538.03
2023-04-02T03:54:34.262Z,93551.38
2023-04-02T03:57:02.888Z,93540.44
2023-04-02T03:59:40.995Z,93559.41
2023-04-02T04:02:28.059Z,93549.78
2023-04-02T04:04:58.350Z,93546.22
2023-04-02T04:07:33.790Z,93531.63
2023-04-02T04:10:04.375Z,93522.28
2023-04-02T04:12:35.945Z,93513.75
2023-04-02T04:15:09.584Z,93535.47
2023-04-02T04:17:51.392Z,93517.94
2023-04-02T04:20:23.176Z,93506.34
2023-04-02T04:22:55.999Z,93497.16
2023-04-02T04:25:29.627Z,93478.03
2023-04-02T04:28:07.763Z,93487.19
2023-04-02T04:30:48.737Z,93497.16
2023-04-02T04:33:23.223Z,93502.13
2023-04-02T04:35:55.559Z,93505.53
2023-04-02T04:38:33.731Z,93533.06
2023-04-02T04:41:06.589Z,93547.84
2023-04-02T04:43:45.575Z,93593.69
2023-04-02T04:46:19.295Z,93626.06
2023-04-02T04:48:54.575Z,93672.28
2023-04-02T04:51:26.772Z,93731.56
2023-04-02T04:53:56.307Z,93785.69
2023-04-02T04:56:28.120Z,93803.41
2023-04-02T04:59:01.823Z,93812.13
2023-04-02T05:01:38.122Z,93832.91
2023-04-02T05:04:14.328Z,93888.53
2023-04-02T05:06:46.302Z,93941.94
2023-04-02T05:09:23.916Z,93994.69
2023-04-02T05:12:01.581Z,94042.13
2023-04-02T05:14:36.629Z,94075.41
2023-04-02T05:17:10.127Z,94119.09
2023-04-02T05:19:45.095Z,94158.38
2023-04-02T05:22:26.555Z,94224.59
2023-04-02T05:25:10.679Z,94287.31
2023-04-02T05:27:45.071Z,94325.78
2023-04-02T05:30:22.559Z,94377.88
2023-04-02T05:32:56.447Z,94426.41
2023-04-02T05:35:31.949Z,94505.41
2023-04-02T05:38:02.138Z,94587.69
2023-04-02T05:40:37.433Z,94668.22
2023-04-02T05:43:10.796Z,94755.44
2023-04-02T05:45:41.806Z,94847.84
2023-04-02T05:48:18.650Z,94963.13
2023-04-02T05:50:51.200Z,95088.69
2023-04-02T05:53:22.834Z,95334.56
2023-04-02T05:55:57.236Z,95648.66
2023-04-02T05:58:36.020Z,95949.28
2023-04-02T06:01:25.111Z,96256.72
2023-04-02T06:04:01.005Z,96536.03
2023-04-02T06:06:43.980Z,96765.56
2023-04-02T06:09:16.803Z,96982.78
2023-04-02T06:11:49.598Z,97165.22
2023-04-02T06:14:18.461Z,97279.63
2023-04-02T06:16:47.234Z,97336.81
2023-04-02T06:19:21.617Z,97431.88
2023-04-02T06:21:53.602Z,97556.56
2023-04-02T06:24:25.716Z,97698.81
2023-04-02T06:26:59.864Z,97827.28
2023-04-02T06:29:34.042Z,97872.63
2023-04-02T06:32:03.461Z,97728.84
2023-04-02T06:34:32.900Z,97794.06
2023-04-02T06:37:04.436Z,97907.94
2023-04-02T06:39:34.662Z,97842.81
2023-04-02T06:42:07.583Z,97905.44
2023-04-02T06:44:37.976Z,97916.53
2023-04-02T06:47:11.257Z,97917.50
2023-04-02T06:49:45.561Z,98047.00
2023-04-02T06:52:20.450Z,97927.88
2023-04-02T06:54:49.110Z,97952.00
2023-04-02T06:57:19.081Z,97889.38
2023-04-02T06:59:47.167Z,97920.41
2023-04-02T07:02:32.499Z,97966.69
2023-04-02T07:05:04.066Z,98058.38
2023-04-02T07:07:31.993Z,98139.81
2023-04-02T07:09:59.955Z,98220.63
2023-04-02T07:12:29.343Z,98111.75
2023-04-02T07:14:57.236Z,98179.50
2023-04-02T07:17:25.175Z,98350.34
2023-04-02T07:19:53.197Z,98372.00
2023-04-02T07:22:22.734Z,98493.25
2023-04-02T07:24:50.575Z,98492.53
2023-04-02T07:27:18.516Z,98631.81
2023-04-02T07:29:47.660Z,98814.53
2023-04-02T07:32:15.597Z,98936.06
2023-04-02T07:34:43.473Z,99063.69
2023-04-02T07:37:15.019Z,98827.59
2023-04-02T07:39:46.386Z,98959.47
2023-04-02T07:42:14.177Z,99060.34
2023-04-02T07:44:42.136Z,99212.47
2023-04-02T07:47:11.572Z,99206.34
2023-04-02T07:49:39.368Z,99355.97
2023-04-02T07:52:07.390Z,99359.47
2023-04-02T07:54:35.887Z,99528.25
2023-04-02T07:57:03.816Z,99649.47
2023-04-02T07:59:31.696Z,99642.47
2023-04-02T08:01:59.783Z,99602.72
2023-04-02T08:04:29.268Z,99489.38
2023-04-02T08:06:57.295Z,99414.34
2023-04-02T08:09:25.207Z,99467.84
2023-04-02T08:11:53.122Z,99511.88
2023-04-02T08:14:21.097Z,99621.16
2023-04-02T08:16:51.919Z,99798.72
2023-04-02T08:19:20.366Z,99991.38
2023-04-02T08:21:51.689Z,100057.34
2023-04-02T08:24:20.549Z,100331.22
2023-04-02T08:26:49.622Z,100285.84
2023-04-02T08:29:17.544Z,100392.22
2023-04-02T08:31:45.473Z,100541.88
2023-04-02T08:34:13.893Z,100623.91
2023-04-02T08:36:45.251Z,100479.22
2023-04-02T08:39:14.764Z,100300.00
2023-04-02T08:41:48.980Z,100373.06
2023-04-02T08:44:29.170Z,100504.66
2023-04-02T08:47:04.151Z,100623.91
2023-04-02T08:49:36.938Z,101015.59
2023-04-02T08:52:07.766Z,100904.84
2023-04-02T08:54:38.654Z,100888.31
2023-04-02T08:57:14.428Z,100794.84
2023-04-02T08:59:44.287Z,100830.56
2023-04-02T09:02:28.374Z,100893.44
2023-04-02T09:04:58.424Z,100932.00
2023-04-02T09:07:28.561Z,101004.41
2023-04-02T09:09:58.305Z,101277.88
2023-04-02T09:12:28.816Z,101159.19
2023-04-02T09:15:07.301Z,101199.31
2023-04-02T09:17:50.399Z,101292.72
2023-04-02T09:20:24.366Z,101214.16
2023-04-02T09:22:54.291Z,101450.38
2023-04-02T09:25:27.508Z,101740.59
2023-04-02T09:27:58.220Z,101575.91
2023-04-02T09:30:41.558Z,101702.94
2023-04-02T09:33:09.966Z,101527.78
2023-04-02T09:35:54.374Z,101316.75
2023-04-02T09:38:24.391Z,101208.28
2023-04-02T09:40:59.656Z,101236.25
2023-04-02T09:43:33.080Z,101238.81
2023-04-02T09:46:04.177Z,101193.31
2023-04-02T09:48:34.231Z,101528.63
2023-04-02T09:51:14.570Z,101658.28
2023-04-02T09:53:44.788Z,101568.88
2023-04-02T09:56:16.684Z,101812.47
2023-04-02T09:58:45.903Z,102310.81
2023-04-02T10:01:29.510Z,102725.84
2023-04-02T10:03:59.315Z,103007.41
2023-04-02T10:06:29.593Z,103018.94
2023-04-02T10:08:57.658Z,103004.72
2023-04-02T10:11:43.730Z,102857.28
2023-04-02T10:14:21.136Z,103146.00
2023-04-02T10:16:52.361Z,103018.94
2023-04-02T10:19:27.589Z,103039.22
2023-04-02T10:21:56.620Z,103322.34
2023-04-02T10:24:27.579Z,103204.47
2023-04-02T10:27:06.796Z,103524.91
2023-04-02T10:29:53.095Z,104010.47
2023-04-02T10:32:26.392Z,103704.88
2023-04-02T10:34:59.692Z,103729.00
2023-04-02T10:37:58.514Z,103675.84
2023-04-02T10:40:32.253Z,103621.66
2023-04-02T10:43:29.470Z,103807.22
2023-04-02T10:46:03.457Z,103330.25
2023-04-02T10:48:44.357Z,102889.16
2023-04-02T10:51:20.397Z,102781.63
2023-04-02T10:53:55.349Z,102809.63
2023-04-02T10:56:24.285Z,103103.63
2023-04-02T10:58:59.393Z,103586.06
2023-04-02T11:01:30.468Z,103209.84
2023-04-02T11:04:02.488Z,103441.66
2023-04-02T11:06:34.842Z,103894.78
2023-04-02T11:09:08.822Z,103464.75
2023-04-02T11:11:41.191Z,103753.63
2023-04-02T11:14:15.437Z,103267.44
2023-04-02T11:16:44.881Z,103472.69
2023-04-02T11:19:24.935Z,103851.28
2023-04-02T11:22:00.274Z,103088.69
2023-04-02T11:24:38.802Z,102990.50
2023-04-02T11:27:19.794Z,103247.72
2023-04-02T11:29:51.404Z,103581.50
2023-04-02T11:32:35.822Z,103122.09
2023-04-02T11:35:33.612Z,103232.63
2023-04-02T11:38:04.327Z,103713.59
2023-04-02T11:40:49.917Z,103874.25
2023-04-02T11:43:52.331Z,103611.66
2023-04-02T11:46:45.749Z,104063.56
2023-04-02T11:49:42.049Z,103670.09
2023-04-02T11:52:28.348Z,103505.25
2023-04-02T11:55:06.684Z,102719.44
2023-04-02T11:57:52.123Z,102093.44
2023-04-02T12:00:31.033Z,102269.28
2023-04-02T12:03:19.110Z,102489.16
2023-04-02T12:05:54.656Z,103037.78
2023-04-02T12:08:30.402Z,103000.69
2023-04-02T12:11:00.490Z,103437.66
2023-04-02T12:13:52.061Z,103404.03
2023-04-02T12:16:20.720Z,103611.31
2023-04-02T12:18:54.058Z,103407.50
2023-04-02T12:21:24.489Z,103223.50
2023-04-02T12:23:55.627Z,103520.69
2023-04-02T12:26:38.699Z,103675.84
2023-04-02T12:29:25.512Z,103752.22
2023-04-02T12:31:54.450Z,103904.03
2023-04-02T12:34:25.068Z,103508.34
2023-04-02T12:36:55.039Z,103379.97
2023-04-02T12:39:24.670Z,103058.91
2023-04-02T12:41:54.794Z,102928.06
2023-04-02T12:44:24.297Z,103048.16
2023-04-02T12:46:53.325Z,103218.00
2023-04-02T12:49:37.940Z,103399.31
2023-04-02T12:52:09.990Z,103237.44
2023-04-02T12:54:46.258Z,103439.22
2023-04-02T12:57:32.979Z,103006.66
2023-04-02T13:00:05.759Z,103124.88
2023-04-02T13:02:43.881Z,102634.28
2023-04-02T13:05:13.313Z,102806.13
2023-04-02T13:07:42.700Z,102848.56
2023-04-02T13:10:25.678Z,102357.63
2023-04-02T13:12:57.497Z,102476.41
2023-04-02T13:15:28.460Z,102615.56
2023-04-02T13:18:15.059Z,102426.84
2023-04-02T13:20:56.143Z,102619.88
2023-04-02T13:23:34.855Z,102629.56
2023-04-02T13:26:06.690Z,102797.13
2023-04-02T13:28:34.561Z,102952.47
2023-04-02T13:31:03.070Z,103163.59
2023-04-02T13:33:31.118Z,103097.19
2023-04-02T13:36:00.575Z,102788.25
2023-04-02T13:38:28.605Z,103035.31
2023-04-02T13:40:56.512Z,103199.75
2023-04-02T13:43:24.431Z,103288.09
2023-04-02T13:45:55.328Z,103137.78
2023-04-02T13:48:26.208Z,103477.47
2023-04-02T13:50:54.171Z,103081.25
2023-04-02T13:53:30.401Z,103000.03
2023-04-02T13:55:58.334Z,103072.22
2023-04-02T13:58:26.576Z,102525.25
2023-04-02T14:00:54.614Z,101943.03
2023-04-02T14:03:25.522Z,101664.09
2023-04-02T14:06:03.029Z,101830.53
2023-04-02T14:08:45.343Z,101922.78
2023-04-02T14:11:27.412Z,102163.47
2023-04-02T14:14:29.843Z,102440.56
2023-04-02T14:17:11.797Z,102130.00
2023-04-02T14:19:55.836Z,102447.44
2023-04-02T14:22:39.193Z,102432.59
2023-04-02T14:25:18.802Z,102932.50
2023-04-02T14:27:54.333Z,102752.56
2023-04-02T14:30:28.352Z,102662.38
2023-04-02T14:33:06.448Z,101846.41
2023-04-02T14:35:37.462Z,101040.97
2023-04-02T14:38:14.690Z,101011.91
2023-04-02T14:40:49.510Z,101436.06
2023-04-02T14:43:23.662Z,101825.00
2023-04-02T14:46:00.137Z,102048.91
2023-04-02T14:48:41.596Z,102287.13
2023-04-02T14:51:16.638Z,102203.66
2023-04-02T14:53:55.925Z,101393.94
2023-04-02T14:56:26.719Z,100384.50
2023-04-02T14:59:05.618Z,99954.19
2023-04-02T15:01:39.081Z,100406.78
2023-04-02T15:04:14.096Z,100831.91
2023-04-02T15:06:45.638Z,100977.69
2023-04-02T15:09:19.110Z,100787.50
2023-04-02T15:11:52.392Z,100247.91
2023-04-02T15:14:24.869Z,99531.97
2023-04-02T15:16:52.765Z,99118.00
2023-04-02T15:19:20.898Z,98780.00
2023-04-02T15:22:06.914Z,98644.63
2023-04-02T15:24:45.500Z,98659.00
2023-04-02T15:27:29.395Z,98788.38
2023-04-02T15:30:09.016Z,98881.47
2023-04-02T15:32:39.796Z,98856.34
2023-04-02T15:35:20.481Z,99019.25
2023-04-02T15:37:58.638Z,98869.22
2023-04-02T15:40:39.272Z,98747.81
2023-04-02T15:43:19.944Z,98743.50
2023-04-02T15:45:55.000Z,98729.59
2023-04-02T15:48:31.459Z,98646.16
2023-04-02T15:51:08.949Z,98453.47
2023-04-02T15:53:50.177Z,98217.13
2023-04-02T15:56:27.495Z,98003.47
2023-04-02T15:59:11.535Z,97844.75
2023-04-02T16:01:52.968Z,97720.81
2023-04-02T16:04:36.926Z,97629.03
2023-04-02T16:07:23.994Z,97448.59
2023-04-02T16:10:03.913Z,97364.03
2023-04-02T16:12:34.030Z,97298.97
2023-04-02T16:15:14.910Z,97230.09
2023-04-02T16:17:47.057Z,97148.97
2023-04-02T16:20:21.796Z,97132.00
2023-04-02T16:23:00.497Z,97096.13
2023-04-02T16:25:33.766Z,97024.59
2023-04-02T16:28:16.156Z,96913.66
2023-04-02T16:30:56.721Z,96842.31
2023-04-02T16:33:37.499Z,96737.25
2023-04-02T16:36:22.114Z,96727.22
2023-04-02T16:38:59.536Z,96717.88
2023-04-02T16:41:41.335Z,96654.84
2023-04-02T16:44:22.208Z,96593.53
2023-04-02T16:47:04.386Z,96574.81
2023-04-02T16:49:38.802Z,96495.81
2023-04-02T16:52:21.136Z,96478.09
2023-04-02T16:54:59.437Z,96403.06
2023-04-02T16:57:37.936Z,96391.28
2023-04-02T17:00:18.488Z,96353.09
2023-04-02T17:02:58.974Z,96294.34
2023-04-02T17:05:32.518Z,96244.00
2023-04-02T17:08:12.323Z,96239.59
2023-04-02T17:10:50.207Z,96219.00
2023-04-02T17:13:27.908Z,96193.50
2023-04-02T17:16:04.709Z,96163.38
2023-04-02T17:18:34.863Z,96114.00
2023-04-02T17:21:06.802Z,96099.44
2023-04-02T17:23:55.422Z,96051.22
2023-04-02T17:26:27.217Z,96043.41
2023-04-02T17:28:58.177Z,96043.66
2023-04-02T17:31:30.892Z,96010.34
2023-04-02T17:34:00.512Z,95997.63
2023-04-02T17:36:40.972Z,95979.81
2023-04-02T17:39:20.282Z,95940.28
2023-04-02T17:41:55.254Z,95913.81
2023-04-02T17:44:39.210Z,95887.50
2023-04-02T17:47:16.312Z,95867.28
2023-04-02T17:49:58.138Z,95847.03
2023-04-02T17:52:31.090Z,95823.22
2023-04-02T17:55:07.463Z,95813.06
2023-04-02T17:57:48.580Z,95778.31
2023-04-02T18:00:36.388Z,95734.41
2023-04-02T18:03:28.753Z,95735.41
2023-04-02T18:06:05.957Z,95706.66
2023-04-02T18:08:43.736Z,95665.09
2023-04-02T18:11:19.431Z,95668.66
2023-04-02T18:13:54.877Z,95642.41
2023-04-02T18:16:35.434Z,95616.69
2023-04-02T18:19:16.066Z,95598.06
2023-04-02T18:21:52.774Z,95567.75
2023-04-02T18:24:34.365Z,95545.94
2023-04-02T18:27:19.342Z,95540.72
2023-04-02T18:29:57.262Z,95526.38
2023-04-02T18:32:53.942Z,95523.13
2023-04-02T18:35:26.749Z,95503.59
2023-04-02T18:38:14.647Z,95456.31
2023-04-02T18:40:50.300Z,95456.31
2023-04-02T18:43:30.500Z,95445.56
2023-04-02T18:46:09.637Z,95410.59
2023-04-02T18:48:44.593Z,95386.81
2023-04-02T18:51:17.688Z,95368.41
2023-04-02T18:53:48.370Z,95389.59
2023-04-02T18:56:19.873Z,95398.03
2023-04-02T18:58:57.156Z,95387.91
2023-04-02T19:01:31.630Z,95383.69
2023-04-02T19:04:04.181Z,95358.31
2023-04-02T19:06:37.849Z,95353.41
2023-04-02T19:09:13.263Z,95343.03
2023-04-02T19:11:41.132Z,95338.13
2023-04-02T19:14:13.757Z,95329.66
2023-04-02T19:17:03.614Z,95303.63
2023-04-02T19:19:38.770Z,95290.13
2023-04-02T19:22:16.714Z,95264.41
2023-04-02T19:25:15.880Z,95250.28
2023-04-02T19:27:58.253Z,95213.19
2023-04-02T19:30:40.724Z,95188.16
2023-04-02T19:33:18.695Z,95193.03
2023-04-02T19:35:53.862Z,95164.41
2023-04-02T19:38:40.985Z,95144.25
2023-04-02T19:41:22.521Z,95148.31
2023-04-02T19:43:50.547Z,95164.25
2023-04-02T19:46:18.386Z,95181.16
2023-04-02T19:48:53.115Z,95190.09
2023-04-02T19:51:21.418Z,95192.06
2023-04-02T19:53:49.209Z,95206.38
2023-04-02T19:56:18.454Z,95196.94
2023-04-02T19:58:46.199Z,95197.91
2023-04-02T20:01:14.036Z,95173.53
2023-04-02T20:03:41.987Z,95149.78
2023-04-02T20:06:09.897Z,95142.13
2023-04-02T20:08:38.518Z,95135.78
2023-04-02T20:11:07.555Z,95124.59
2023-04-02T20:13:36.734Z,95110.13
2023-04-02T20:16:06.545Z,95133.03
2023-04-02T20:18:37.026Z,95141.50
2023-04-02T20:21:06.608Z,95135.31
2023-04-02T20:23:35.400Z,95137.09
2023-04-02T20:26:04.684Z,95121.03
2023-04-02T20:28:32.702Z,95135.47
2023-04-02T20:31:09.768Z,95148.16
2023-04-02T20:33:38.567Z,95137.09
2023-04-02T20:36:08.878Z,95143.94
2023-04-02T20:38:37.596Z,95152.38
2023-04-02T20:41:07.686Z,95148.81
2023-04-02T20:43:36.344Z,95153.50
2023-04-02T20:46:10.081Z,95140.50
2023-04-02T20:48:39.253Z,95127.84
2023-04-02T20:51:09.103Z,95094.88
2023-04-02T20:53:38.521Z,95073.91
2023-04-02T20:56:08.002Z,95072.28
2023-04-02T20:58:36.840Z,95057.81
2023-04-02T21:01:11.304Z,95009.06
2023-04-02T21:03:40.071Z,95015.09
2023-04-02T21:06:13.351Z,94995.44
2023-04-02T21:08:41.395Z,94997.06
2023-04-02T21:11:09.634Z,95014.91
2023-04-02T21:13:38.526Z,95022.38
2023-04-02T21:16:16.137Z,95019.13
2023-04-02T21:18:44.522Z,94984.88
2023-04-02T21:21:13.875Z,94989.44
2023-04-02T21:23:42.613Z,94984.56
2023-04-02T21:26:13.330Z,94973.38
2023-04-02T21:28:41.587Z,94941.53
2023-04-02T21:31:11.648Z,94933.22
2023-04-02T21:33:42.565Z,94921.72
2023-04-02T21:36:12.982Z,94920.56
2023-04-02T21:38:43.720Z,94883.59
2023-04-02T21:41:13.915Z,94891.19
2023-04-02T21:43:41.849Z,94896.06
2023-04-02T21:46:10.117Z,94907.75
2023-04-02T21:48:38.161Z,94899.66
2023-04-02T21:51:09.956Z,94880.34
2023-04-02T21:53:38.398Z,94836.38
2023-04-02T21:56:09.303Z,94791.91
2023-04-02T21:58:37.328Z,94791.09
2023-04-02T22:01:11.137Z,94784.28
2023-04-02T22:03:43.244Z,94781.84
2023-04-02T22:06:15.158Z,94746.50
2023-04-02T22:08:44.509Z,94697.84
2023-04-02T22:11:14.542Z,94698.50
2023-04-02T22:13:43.825Z,94710.66
2023-04-02T22:16:13.902Z,94738.09
2023-04-02T22:18:42.265Z,94733.19
2023-04-02T22:21:12.004Z,94704.66
2023-04-02T22:23:40.814Z,94688.63
2023-04-02T22:26:09.838Z,94661.72
2023-04-02T22:28:38.800Z,94627.19
2023-04-02T22:31:10.134Z,94613.75
2023-04-02T22:33:38.586Z,94635.66
2023-04-02T22:36:07.757Z,94601.91
2023-04-02T22:38:37.479Z,94600.31
2023-04-02T22:41:07.340Z,94560.47
2023-04-02T22:43:35.422Z,94570.19
2023-04-02T22:46:03.555Z,94568.56
2023-04-02T22:48:31.817Z,94562.72
2023-04-02T22:50:59.824Z,94544.44
2023-04-02T22:53:28.138Z,94514.13
2023-04-02T22:56:02.959Z,94541.69
2023-04-02T22:58:31.297Z,94538.44
2023-04-02T23:01:04.815Z,94536.50
2023-04-02T23:03:32.692Z,94590.25
2023-04-02T23:06:03.934Z,94581.84
2023-04-02T23:08:31.784Z,94545.72
2023-04-02T23:11:06.300Z,94517.22
2023-04-02T23:13:34.905Z,94513.16
2023-04-02T23:16:03.997Z,94505.06
2023-04-02T23:18:33.797Z,94482.59
2023-04-02T23:21:01.983Z,94484.69
2023-04-02T23:23:31.390Z,94450.84
2023-04-02T23:26:09.098Z,94479.50
2023-04-02T23:28:38.306Z,94472.38
2023-04-02T23:31:08.064Z,94508.31
2023-04-02T23:33:36.371Z,94481.91
2023-04-02T23:36:08.521Z,94524.84
2023-04-02T23:38:36.656Z,94538.44
2023-04-02T23:41:04.868Z,94548.16
2023-04-02T23:43:34.004Z,94543.13
2023-04-02T23:46:02.006Z,94528.91
2023-04-02T23:48:29.981Z,94512.19
2023-04-02T23:50:57.954Z,94473.69
2023-04-02T23:53:27.359Z,94425.78
2023-04-02T23:55:55.291Z,94403.91
2023-04-02T23:58:23.188Z,94386.44
